createdAt,value
2018-07-22T00:00:39.091Z,20.73
2018-07-22T00:03:07.494Z,20.71
2018-07-22T00:05:35.904Z,20.75
2018-07-22T00:08:04.265Z,20.69
2018-07-22T00:10:32.596Z,20.63
2018-07-22T00:13:01.251Z,20.58
2018-07-22T00:15:29.750Z,20.49
2018-07-22T00:17:58.182Z,20.45
2018-07-22T00:20:26.518Z,20.51
2018-07-22T00:22:54.894Z,20.51
2018-07-22T00:25:23.234Z,20.45
2018-07-22T00:27:51.672Z,20.34
2018-07-22T00:30:19.997Z,20.30
2018-07-22T00:32:48.291Z,20.26
2018-07-22T00:35:16.592Z,20.24
2018-07-22T00:37:45.007Z,20.21
2018-07-22T00:40:13.359Z,20.21
2018-07-22T00:42:42.063Z,20.13
2018-07-22T00:45:12.545Z,20.16
2018-07-22T00:47:41.319Z,20.21
2018-07-22T00:50:09.687Z,20.12
2018-07-22T00:52:38.254Z,20.00
2018-07-22T00:55:06.885Z,19.91
2018-07-22T00:57:35.208Z,20.13
2018-07-22T01:00:04.215Z,20.01
2018-07-22T01:02:32.509Z,20.15
2018-07-22T01:05:00.818Z,19.82
2018-07-22T01:07:29.267Z,19.74
2018-07-22T01:09:57.600Z,19.71
2018-07-22T01:12:25.925Z,19.63
2018-07-22T01:14:54.503Z,19.59
2018-07-22T01:17:22.821Z,19.63
2018-07-22T01:19:51.126Z,19.61
2018-07-22T01:22:19.451Z,19.71
2018-07-22T01:24:47.731Z,19.82
2018-07-22T01:27:16.063Z,19.76
2018-07-22T01:29:44.402Z,19.82
2018-07-22T01:32:12.775Z,19.76
2018-07-22T01:34:41.066Z,19.82
2018-07-22T01:37:09.419Z,19.92
2018-07-22T01:39:37.727Z,19.85
2018-07-22T01:42:06.052Z,19.78
2018-07-22T01:44:34.337Z,19.63
2018-07-22T01:47:02.684Z,19.69
2018-07-22T01:49:31.067Z,19.60
2018-07-22T01:51:59.394Z,19.70
2018-07-22T01:54:27.679Z,19.56
2018-07-22T01:56:55.982Z,19.53
2018-07-22T01:59:24.336Z,19.44
2018-07-22T02:01:52.688Z,19.32
2018-07-22T02:04:20.967Z,19.32
2018-07-22T02:06:49.369Z,19.20
2018-07-22T02:09:17.885Z,19.27
2018-07-22T02:11:46.233Z,19.17
2018-07-22T02:14:14.536Z,19.08
2018-07-22T02:16:42.965Z,19.13
2018-07-22T02:19:11.273Z,19.00
2018-07-22T02:21:39.782Z,19.06
2018-07-22T02:24:08.062Z,19.10
2018-07-22T02:26:36.379Z,19.16
2018-07-22T02:29:04.675Z,19.21
2018-07-22T02:31:33.043Z,19.11
2018-07-22T02:34:01.306Z,18.96
2018-07-22T02:36:29.610Z,18.96
2018-07-22T02:38:57.872Z,18.80
2018-07-22T02:41:26.218Z,18.96
2018-07-22T02:43:54.517Z,18.93
2018-07-22T02:46:22.978Z,18.60
2018-07-22T02:48:51.323Z,18.47
2018-07-22T02:51:19.776Z,18.69
2018-07-22T02:53:48.167Z,18.82
2018-07-22T02:56:16.818Z,18.38
2018-07-22T02:58:45.150Z,18.38
2018-07-22T03:01:13.515Z,18.06
2018-07-22T03:03:41.894Z,17.91
2018-07-22T03:06:10.215Z,17.78
2018-07-22T03:08:38.489Z,18.01
2018-07-22T03:11:06.871Z,18.22
2018-07-22T03:13:35.204Z,18.36
2018-07-22T03:16:03.503Z,18.39
2018-07-22T03:18:31.861Z,18.41
2018-07-22T03:21:00.252Z,18.32
2018-07-22T03:23:28.602Z,18.09
2018-07-22T03:25:57.035Z,17.98
2018-07-22T03:28:25.377Z,17.89
2018-07-22T03:30:53.684Z,18.15
2018-07-22T03:33:21.990Z,18.29
2018-07-22T03:35:50.313Z,18.36
2018-07-22T03:38:18.686Z,17.79
2018-07-22T03:40:46.983Z,17.60
2018-07-22T03:43:15.651Z,17.72
2018-07-22T03:45:43.999Z,18.08
2018-07-22T03:48:12.323Z,18.09
2018-07-22T03:50:40.588Z,18.19
2018-07-22T03:53:08.944Z,18.13
2018-07-22T03:55:37.247Z,17.77
2018-07-22T03:58:05.746Z,17.79
2018-07-22T04:00:34.049Z,17.85
2018-07-22T04:03:02.392Z,17.79
2018-07-22T04:05:30.708Z,17.79
2018-07-22T04:07:59.022Z,17.71
2018-07-22T04:10:27.289Z,17.80
2018-07-22T04:12:55.598Z,17.78
2018-07-22T04:15:23.915Z,17.83
2018-07-22T04:17:52.479Z,17.95
2018-07-22T04:20:20.795Z,17.71
2018-07-22T04:22:49.629Z,17.73
2018-07-22T04:25:18.526Z,17.74
2018-07-22T04:27:47.368Z,17.71
2018-07-22T04:30:15.751Z,17.41
2018-07-22T04:32:44.209Z,17.45
2018-07-22T04:35:12.475Z,17.72
2018-07-22T04:37:41.111Z,18.08
2018-07-22T04:40:09.621Z,18.08
2018-07-22T04:42:38.648Z,18.28
2018-07-22T04:45:07.403Z,18.43
2018-07-22T04:47:35.730Z,18.37
2018-07-22T04:50:04.106Z,18.33
2018-07-22T04:52:32.494Z,18.40
2018-07-22T04:55:00.852Z,18.31
2018-07-22T04:57:29.403Z,18.22
2018-07-22T04:59:57.729Z,18.11
2018-07-22T05:02:26.019Z,17.98
2018-07-22T05:04:54.351Z,17.92
2018-07-22T05:07:23.937Z,17.96
2018-07-22T05:09:52.259Z,18.08
2018-07-22T05:12:20.660Z,18.15
2018-07-22T05:14:49.038Z,18.17
2018-07-22T05:17:17.354Z,18.40
2018-07-22T05:19:45.694Z,18.45
2018-07-22T05:22:14.001Z,18.68
2018-07-22T05:24:42.318Z,18.84
2018-07-22T05:27:10.684Z,18.91
2018-07-22T05:29:39.538Z,18.89
2018-07-22T05:32:07.875Z,18.94
2018-07-22T05:34:36.268Z,18.78
2018-07-22T05:37:04.588Z,18.93
2018-07-22T05:39:32.993Z,18.92
2018-07-22T05:42:01.375Z,18.94
2018-07-22T05:44:29.695Z,18.88
2018-07-22T05:46:58.061Z,18.97
2018-07-22T05:49:26.403Z,19.26
2018-07-22T05:51:54.738Z,19.08
2018-07-22T05:54:24.281Z,18.98
2018-07-22T05:56:52.654Z,19.07
2018-07-22T05:59:21.002Z,18.96
2018-07-22T06:01:49.294Z,18.88
2018-07-22T06:04:17.619Z,19.00
2018-07-22T06:06:45.964Z,19.12
2018-07-22T06:09:14.310Z,19.20
2018-07-22T06:11:42.610Z,19.20
2018-07-22T06:14:10.958Z,19.04
2018-07-22T06:16:39.357Z,19.07
2018-07-22T06:19:07.639Z,18.92
2018-07-22T06:21:35.994Z,19.09
2018-07-22T06:24:04.312Z,19.27
2018-07-22T06:26:32.638Z,19.51
2018-07-22T06:29:00.955Z,19.30
2018-07-22T06:31:29.301Z,19.39
2018-07-22T06:33:57.697Z,19.51
2018-07-22T06:36:26.022Z,19.29
2018-07-22T06:38:54.297Z,19.36
2018-07-22T06:41:22.708Z,19.67
2018-07-22T06:43:51.065Z,19.76
2018-07-22T06:46:19.373Z,19.91
2018-07-22T06:48:47.904Z,19.57
2018-07-22T06:51:16.427Z,19.58
2018-07-22T06:53:44.908Z,19.73
2018-07-22T06:56:13.254Z,19.56
2018-07-22T06:58:41.627Z,19.70
2018-07-22T07:01:09.967Z,19.82
2018-07-22T07:03:38.243Z,19.97
2018-07-22T07:06:06.617Z,19.97
2018-07-22T07:08:35.015Z,20.12
2018-07-22T07:11:03.564Z,20.24
2018-07-22T07:13:32.830Z,20.28
2018-07-22T07:16:01.135Z,20.09
2018-07-22T07:18:29.462Z,20.19
2018-07-22T07:20:57.788Z,20.48
2018-07-22T07:23:26.084Z,20.49
2018-07-22T07:25:55.150Z,20.59
2018-07-22T07:28:23.427Z,20.84
2018-07-22T07:30:52.101Z,21.06
2018-07-22T07:33:20.948Z,20.93
2018-07-22T07:35:49.637Z,21.28
2018-07-22T07:38:18.157Z,21.40
2018-07-22T07:40:47.515Z,21.72
2018-07-22T07:43:16.411Z,21.87
2018-07-22T07:45:45.147Z,21.76
2018-07-22T07:48:13.950Z,21.76
2018-07-22T07:50:42.910Z,21.66
2018-07-22T07:53:12.535Z,21.67
2018-07-22T07:55:43.006Z,21.68
2018-07-22T07:58:30.692Z,21.92
2018-07-22T08:01:01.444Z,21.84
2018-07-22T08:03:34.761Z,21.91
2018-07-22T08:06:03.699Z,21.97
2018-07-22T08:08:34.549Z,22.05
2018-07-22T08:11:03.104Z,21.72
2018-07-22T08:13:31.844Z,21.80
2018-07-22T08:16:00.793Z,21.81
2018-07-22T08:18:30.856Z,21.84
2018-07-22T08:20:59.611Z,21.83
2018-07-22T08:26:02.059Z,21.96
2018-07-22T08:29:48.841Z,22.04
2018-07-22T08:32:17.612Z,21.88
2018-07-22T08:34:46.237Z,22.06
2018-07-22T08:37:14.963Z,22.13
2018-07-22T08:39:43.572Z,22.25
2018-07-22T08:42:12.369Z,22.33
2018-07-22T08:44:41.117Z,22.22
2018-07-22T08:47:09.826Z,22.35
2018-07-22T08:49:40.917Z,22.17
2018-07-22T08:52:09.555Z,22.37
2018-07-22T08:54:38.097Z,22.25
2018-07-22T08:57:06.915Z,22.60
2018-07-22T08:59:36.674Z,22.70
2018-07-22T09:02:05.420Z,22.76
2018-07-22T09:04:33.920Z,22.67
2018-07-22T09:07:02.555Z,22.69
2018-07-22T09:09:30.998Z,22.63
2018-07-22T09:11:59.504Z,22.55
2018-07-22T09:14:27.942Z,22.63
2018-07-22T09:16:56.615Z,22.86
2018-07-22T09:19:25.211Z,22.83
2018-07-22T09:21:53.790Z,22.67
2018-07-22T09:24:22.396Z,22.90
2018-07-22T09:26:50.877Z,22.88
2018-07-22T09:29:20.452Z,22.98
2018-07-22T09:31:49.189Z,23.01
2018-07-22T09:34:18.576Z,23.08
2018-07-22T09:36:47.211Z,23.13
2018-07-22T09:39:15.760Z,23.31
2018-07-22T09:41:45.266Z,23.60
2018-07-22T09:44:13.848Z,23.52
2018-07-22T09:46:56.454Z,23.60
2018-07-22T09:49:25.468Z,23.56
2018-07-22T09:51:53.784Z,23.74
2018-07-22T09:54:22.183Z,23.90
2018-07-22T09:56:50.731Z,24.17
2018-07-22T09:59:19.057Z,24.35
2018-07-22T10:01:47.343Z,24.58
2018-07-22T10:04:15.607Z,24.58
2018-07-22T10:06:43.911Z,24.88
2018-07-22T10:09:12.646Z,24.88
2018-07-22T10:11:40.981Z,24.58
2018-07-22T10:14:09.433Z,24.92
2018-07-22T10:16:37.859Z,25.13
2018-07-22T10:19:06.896Z,25.47
2018-07-22T10:21:35.340Z,25.64
2018-07-22T10:24:03.817Z,25.65
2018-07-22T10:26:32.467Z,25.13
2018-07-22T10:29:02.023Z,25.11
2018-07-22T10:31:30.347Z,25.24
2018-07-22T10:33:59.610Z,25.49
2018-07-22T10:36:27.996Z,25.88
2018-07-22T10:38:56.570Z,25.88
2018-07-22T10:41:26.551Z,25.95
2018-07-22T10:43:54.864Z,26.41
2018-07-22T10:46:26.525Z,26.64
2018-07-22T10:48:57.427Z,26.91
2018-07-22T10:51:26.628Z,26.15
2018-07-22T10:53:55.016Z,26.28
2018-07-22T10:56:23.511Z,26.00
2018-07-22T10:58:52.280Z,25.85
2018-07-22T11:01:21.667Z,25.66
2018-07-22T11:03:50.708Z,25.66
2018-07-22T11:06:19.062Z,25.50
2018-07-22T11:08:48.262Z,25.75
2018-07-22T11:11:16.658Z,25.66
2018-07-22T11:13:45.093Z,25.55
2018-07-22T11:16:13.375Z,25.28
2018-07-22T11:18:42.826Z,25.02
2018-07-22T11:21:12.632Z,24.92
2018-07-22T11:23:41.938Z,24.97
2018-07-22T11:26:12.067Z,24.97
2018-07-22T11:28:40.746Z,25.13
2018-07-22T11:31:09.965Z,24.59
2018-07-22T11:33:39.238Z,24.86
2018-07-22T11:36:07.978Z,24.80
2018-07-22T11:38:37.785Z,25.05
2018-07-22T11:41:06.890Z,25.32
2018-07-22T11:43:35.275Z,25.35
2018-07-22T11:46:04.646Z,25.21
2018-07-22T11:48:34.446Z,25.78
2018-07-22T11:51:04.175Z,26.28
2018-07-22T11:53:33.318Z,26.32
2018-07-22T11:56:01.842Z,26.51
2018-07-22T11:58:31.139Z,26.34
2018-07-22T12:01:01.037Z,26.50
2018-07-22T12:03:29.690Z,26.82
2018-07-22T12:05:59.697Z,27.53
2018-07-22T12:08:28.165Z,27.53
2018-07-22T12:10:57.146Z,27.53
2018-07-22T12:13:27.196Z,26.68
2018-07-22T12:15:56.297Z,27.10
2018-07-22T12:18:24.788Z,27.57
2018-07-22T12:20:53.755Z,26.53
2018-07-22T12:23:24.502Z,27.03
2018-07-22T12:25:55.021Z,27.16
2018-07-22T12:28:23.491Z,27.24
2018-07-22T12:30:52.067Z,27.45
2018-07-22T12:33:20.432Z,27.50
2018-07-22T12:35:49.035Z,27.57
2018-07-22T12:38:17.600Z,26.91
2018-07-22T12:40:46.508Z,26.83
2018-07-22T12:43:14.868Z,26.58
2018-07-22T12:45:43.260Z,26.32
2018-07-22T12:48:11.667Z,26.02
2018-07-22T12:50:40.081Z,25.70
2018-07-22T12:53:08.867Z,24.54
2018-07-22T12:55:37.331Z,23.25
2018-07-22T12:58:05.723Z,22.89
2018-07-22T13:00:34.070Z,22.86
2018-07-22T13:03:04.415Z,22.78
2018-07-22T13:05:32.875Z,22.77
2018-07-22T13:08:01.735Z,22.07
2018-07-22T13:10:30.094Z,21.17
2018-07-22T13:12:58.590Z,20.83
2018-07-22T13:15:26.943Z,20.70
2018-07-22T13:17:55.569Z,20.57
2018-07-22T13:20:23.966Z,19.86
2018-07-22T13:22:52.643Z,19.19
2018-07-22T13:25:20.986Z,18.63
2018-07-22T13:27:49.361Z,18.28
2018-07-22T13:30:17.872Z,17.98
2018-07-22T13:32:46.772Z,17.97
2018-07-22T13:35:15.482Z,17.91
2018-07-22T13:37:44.026Z,17.95
2018-07-22T13:40:12.385Z,18.35
2018-07-22T13:42:41.185Z,18.21
2018-07-22T13:45:09.531Z,18.32
2018-07-22T13:47:37.821Z,17.98
2018-07-22T13:50:06.648Z,18.22
2018-07-22T13:52:35.014Z,17.99
2018-07-22T13:55:03.476Z,18.02
2018-07-22T13:57:32.152Z,18.08
2018-07-22T14:00:00.600Z,18.36
2018-07-22T14:02:29.893Z,18.52
2018-07-22T14:04:58.912Z,18.37
2018-07-22T14:07:27.975Z,18.34
2018-07-22T14:09:56.455Z,18.57
2018-07-22T14:12:25.066Z,18.51
2018-07-22T14:14:53.952Z,18.81
2018-07-22T14:17:22.377Z,19.14
2018-07-22T14:19:51.777Z,18.92
2018-07-22T14:22:20.256Z,19.09
2018-07-22T14:24:48.661Z,19.12
2018-07-22T14:27:17.075Z,19.09
2018-07-22T14:29:45.390Z,18.94
2018-07-22T14:32:14.245Z,19.12
2018-07-22T14:34:42.895Z,19.27
2018-07-22T14:37:11.641Z,18.88
2018-07-22T14:39:40.052Z,18.99
2018-07-22T14:42:08.567Z,19.03
2018-07-22T14:44:36.935Z,18.93
2018-07-22T14:47:05.790Z,18.86
2018-07-22T14:49:34.213Z,19.11
2018-07-22T14:52:02.623Z,19.04
2018-07-22T14:54:31.121Z,19.04
2018-07-22T14:56:59.731Z,19.07
2018-07-22T14:59:28.286Z,19.09
2018-07-22T15:01:56.866Z,19.00
2018-07-22T15:04:25.912Z,19.04
2018-07-22T15:06:54.746Z,18.79
2018-07-22T15:09:23.109Z,18.90
2018-07-22T15:11:51.471Z,19.16
2018-07-22T15:14:19.989Z,19.26
2018-07-22T15:16:48.534Z,19.11
2018-07-22T15:19:17.166Z,19.35
2018-07-22T15:21:45.506Z,19.41
2018-07-22T15:24:13.922Z,19.50
2018-07-22T15:26:42.455Z,19.49
2018-07-22T15:29:10.948Z,19.70
2018-07-22T15:31:39.418Z,19.71
2018-07-22T15:34:08.012Z,19.64
2018-07-22T15:36:36.574Z,19.79
2018-07-22T15:39:08.038Z,19.62
2018-07-22T15:41:36.490Z,19.40
2018-07-22T15:44:05.077Z,19.23
2018-07-22T15:46:34.231Z,19.29
2018-07-22T15:49:04.266Z,19.10
2018-07-22T15:51:37.577Z,19.13
2018-07-22T15:54:06.874Z,19.27
2018-07-22T15:56:35.838Z,19.29
2018-07-22T15:59:04.535Z,19.26
2018-07-22T16:01:32.862Z,19.16
2018-07-22T16:04:01.419Z,19.28
2018-07-22T16:06:30.371Z,19.24
2018-07-22T16:08:58.912Z,19.29
2018-07-22T16:11:28.664Z,19.32
2018-07-22T16:14:00.364Z,19.33
2018-07-22T16:16:29.386Z,19.28
2018-07-22T16:19:09.774Z,19.32
2018-07-22T16:21:53.768Z,19.38
2018-07-22T16:24:23.388Z,19.15
2018-07-22T16:26:52.089Z,19.16
2018-07-22T16:29:21.117Z,19.04
2018-07-22T16:31:49.943Z,19.04
2018-07-22T16:34:18.287Z,19.12
2018-07-22T16:36:46.749Z,19.01
2018-07-22T16:39:25.765Z,18.80
2018-07-22T16:41:54.270Z,18.71
2018-07-22T16:44:22.554Z,18.78
2018-07-22T16:46:51.775Z,18.85
2018-07-22T16:49:20.227Z,18.78
2018-07-22T16:51:48.579Z,19.01
2018-07-22T16:54:16.898Z,18.87
2018-07-22T16:56:45.324Z,19.08
2018-07-22T16:59:13.631Z,19.35
2018-07-22T17:01:41.967Z,19.19
2018-07-22T17:04:12.043Z,18.92
2018-07-22T17:06:40.418Z,19.00
2018-07-22T17:09:12.106Z,19.19
2018-07-22T17:11:44.016Z,19.42
2018-07-22T17:14:12.370Z,19.31
2018-07-22T17:16:40.650Z,19.31
2018-07-22T17:19:09.070Z,19.30
2018-07-22T17:21:37.384Z,19.16
2018-07-22T17:24:05.926Z,19.27
2018-07-22T17:26:34.306Z,19.18
2018-07-22T17:29:02.615Z,19.20
2018-07-22T17:31:31.537Z,19.33
2018-07-22T17:34:01.295Z,19.04
2018-07-22T17:36:30.681Z,19.10
2018-07-22T17:38:59.177Z,19.04
2018-07-22T17:41:27.576Z,18.90
2018-07-22T17:43:55.935Z,19.03
2018-07-22T17:46:24.253Z,19.19
2018-07-22T17:48:52.604Z,18.92
2018-07-22T17:51:20.969Z,19.04
2018-07-22T17:53:49.454Z,18.86
2018-07-22T17:56:17.723Z,19.09
2018-07-22T17:58:46.611Z,18.90
2018-07-22T18:01:15.107Z,18.96
2018-07-22T18:03:43.575Z,19.10
2018-07-22T18:06:11.905Z,19.29
2018-07-22T18:08:40.232Z,19.37
2018-07-22T18:11:08.567Z,19.47
2018-07-22T18:13:36.976Z,19.45
2018-07-22T18:16:05.279Z,19.66
2018-07-22T18:18:35.429Z,19.56
2018-07-22T18:21:05.495Z,19.64
2018-07-22T18:23:38.489Z,19.52
2018-07-22T18:26:08.583Z,19.45
2018-07-22T18:28:37.008Z,19.26
2018-07-22T18:31:05.305Z,19.28
2018-07-22T18:33:33.710Z,19.37
2018-07-22T18:36:02.073Z,19.53
2018-07-22T18:38:30.814Z,19.76
2018-07-22T18:41:00.072Z,19.64
2018-07-22T18:43:33.636Z,19.28
2018-07-22T18:46:01.924Z,19.24
2018-07-22T18:48:30.294Z,19.23
2018-07-22T18:51:00.229Z,19.18
2018-07-22T18:53:28.593Z,19.20
2018-07-22T18:55:59.906Z,19.14
2018-07-22T18:58:30.456Z,19.04
2018-07-22T19:00:58.795Z,19.08
2018-07-22T19:03:27.635Z,19.27
2018-07-22T19:05:58.016Z,19.04
2018-07-22T19:08:31.876Z,18.94
2018-07-22T19:11:01.307Z,18.85
2018-07-22T19:13:29.762Z,18.72
2018-07-22T19:15:59.791Z,18.63
2018-07-22T19:18:31.153Z,18.60
2018-07-22T19:21:00.697Z,18.63
2018-07-22T19:23:29.101Z,18.68
2018-07-22T19:25:58.899Z,18.75
2018-07-22T19:28:28.619Z,18.90
2018-07-22T19:30:57.598Z,18.82
2018-07-22T19:33:27.528Z,18.81
2018-07-22T19:35:56.163Z,18.67
2018-07-22T19:38:25.081Z,18.59
2018-07-22T19:40:54.926Z,18.72
2018-07-22T19:43:24.719Z,18.73
2018-07-22T19:45:54.149Z,18.51
2018-07-22T19:48:25.554Z,18.52
2018-07-22T19:50:55.456Z,18.35
2018-07-22T19:53:24.526Z,18.30
2018-07-22T19:55:53.539Z,18.47
2018-07-22T19:58:21.944Z,18.53
2018-07-22T20:00:50.284Z,18.28
2018-07-22T20:03:18.590Z,18.21
2018-07-22T20:05:47.012Z,18.10
2018-07-22T20:08:15.362Z,18.06
2018-07-22T20:10:44.009Z,17.86
2018-07-22T20:13:12.491Z,17.63
2018-07-22T20:15:40.843Z,17.58
2018-07-22T20:18:09.283Z,17.70
2018-07-22T20:20:37.638Z,17.58
2018-07-22T20:23:05.968Z,17.58
2018-07-22T20:25:34.478Z,17.29
2018-07-22T20:28:02.959Z,17.33
2018-07-22T20:30:31.292Z,17.21
2018-07-22T20:32:59.580Z,17.36
2018-07-22T20:35:27.959Z,17.28
2018-07-22T20:37:57.450Z,17.26
2018-07-22T20:40:25.791Z,17.35
2018-07-22T20:42:54.130Z,17.51
2018-07-22T20:45:22.711Z,17.60
2018-07-22T20:47:52.530Z,17.32
2018-07-22T20:50:21.048Z,17.24
2018-07-22T20:52:49.362Z,17.23
2018-07-22T20:55:17.703Z,16.89
2018-07-22T20:57:46.063Z,16.79
2018-07-22T21:00:14.699Z,16.77
2018-07-22T21:02:46.011Z,16.93
2018-07-22T21:05:14.342Z,17.01
2018-07-22T21:07:42.660Z,16.90
2018-07-22T21:10:11.006Z,17.05
2018-07-22T21:12:51.932Z,17.13
2018-07-22T21:15:20.472Z,17.04
2018-07-22T21:17:50.227Z,16.87
2018-07-22T21:20:19.519Z,16.73
2018-07-22T21:22:48.207Z,16.70
2018-07-22T21:25:17.031Z,16.70
2018-07-22T21:27:45.619Z,16.70
2018-07-22T21:30:14.622Z,16.54
2018-07-22T21:32:42.937Z,16.50
2018-07-22T21:35:11.436Z,16.56
2018-07-22T21:37:39.935Z,16.70
2018-07-22T21:40:08.301Z,16.78
2018-07-22T21:42:36.670Z,16.67
2018-07-22T21:45:06.101Z,16.60
2018-07-22T21:47:34.948Z,16.64
2018-07-22T21:50:03.322Z,16.77
2018-07-22T21:52:31.651Z,16.99
2018-07-22T21:54:59.978Z,16.98
2018-07-22T21:57:28.314Z,17.01
2018-07-22T21:59:56.668Z,16.93
2018-07-22T22:02:31.603Z,16.76
2018-07-22T22:05:00.595Z,16.70
2018-07-22T22:07:28.896Z,16.81
2018-07-22T22:09:57.300Z,16.57
2018-07-22T22:12:25.577Z,16.51
2018-07-22T22:14:54.006Z,16.59
2018-07-22T22:17:22.388Z,16.66
2018-07-22T22:19:50.754Z,16.60
2018-07-22T22:22:19.029Z,16.61
2018-07-22T22:24:47.467Z,16.59
2018-07-22T22:27:16.550Z,16.59
2018-07-22T22:29:44.862Z,16.52
2018-07-22T22:32:13.277Z,16.48
2018-07-22T22:34:42.076Z,16.61
2018-07-22T22:37:10.400Z,16.69
2018-07-22T22:39:43.398Z,16.64
2018-07-22T22:42:11.778Z,16.51
2018-07-22T22:44:40.065Z,16.34
2018-07-22T22:47:08.378Z,16.20
2018-07-22T22:49:36.663Z,16.30
2018-07-22T22:52:05.146Z,16.27
2018-07-22T22:54:34.089Z,16.31
2018-07-22T22:57:02.418Z,16.23
2018-07-22T22:59:30.716Z,16.42
2018-07-22T23:01:59.070Z,16.59
2018-07-22T23:04:27.419Z,16.47
2018-07-22T23:06:55.767Z,16.50
2018-07-22T23:09:24.109Z,16.35
2018-07-22T23:11:52.454Z,16.39
2018-07-22T23:14:20.780Z,16.33
2018-07-22T23:16:49.211Z,16.49
2018-07-22T23:19:17.520Z,16.42
2018-07-22T23:21:45.858Z,16.15
2018-07-22T23:24:14.141Z,15.93
2018-07-22T23:26:42.503Z,15.89
2018-07-22T23:29:10.782Z,15.87
2018-07-22T23:31:39.080Z,15.79
2018-07-22T23:34:07.394Z,15.80
2018-07-22T23:36:35.693Z,15.84
2018-07-22T23:39:06.163Z,15.95
2018-07-22T23:41:34.606Z,15.93
2018-07-22T23:44:02.914Z,15.89
2018-07-22T23:46:31.228Z,15.82
2018-07-22T23:48:59.493Z,15.74
2018-07-22T23:51:27.800Z,15.79
2018-07-22T23:53:56.088Z,15.94
2018-07-22T23:56:24.420Z,15.79
2018-07-22T23:58:52.727Z,15.80
